createdAt,value
2022-11-12T00:01:18.158Z,9.90
2022-11-12T00:06:39.889Z,9.60
2022-11-12T00:12:02.893Z,9.60
2022-11-12T00:17:24.649Z,9.80
2022-11-12T00:22:46.039Z,9.80
2022-11-12T00:28:10.838Z,9.70
2022-11-12T00:33:32.241Z,9.70
2022-11-12T00:38:54.024Z,9.70
2022-11-12T00:44:16.896Z,9.10
2022-11-12T00:49:38.374Z,9.40
2022-11-12T00:55:00.060Z,9.60
2022-11-12T01:00:23.329Z,9.50
2022-11-12T01:05:44.761Z,9.50
2022-11-12T01:11:07.791Z,9.50
2022-11-12T01:16:33.196Z,9.50
2022-11-12T01:21:54.775Z,9.20
2022-11-12T01:27:16.968Z,9.30
2022-11-12T01:32:39.967Z,9.40
2022-11-12T01:38:01.896Z,9.40
2022-11-12T01:43:23.646Z,9.40
2022-11-12T01:48:50.779Z,9.30
2022-11-12T01:54:16.732Z,9.20
2022-11-12T01:59:43.920Z,9.30
2022-11-12T02:05:10.447Z,9.40
2022-11-12T02:10:32.338Z,9.20
2022-11-12T02:15:54.061Z,9.30
2022-11-12T02:21:20.816Z,9.10
2022-11-12T02:26:46.533Z,9.30
2022-11-12T02:32:08.324Z,8.60
2022-11-12T02:37:31.569Z,8.80
2022-11-12T02:42:53.749Z,8.80
2022-11-12T02:48:19.172Z,9.00
2022-11-12T02:53:42.850Z,9.10
2022-11-12T02:59:04.725Z,9.10
2022-11-12T03:04:26.236Z,9.10
2022-11-12T03:09:49.432Z,9.00
2022-11-12T03:15:11.522Z,8.70
2022-11-12T03:20:34.705Z,8.10
2022-11-12T03:25:57.472Z,8.00
2022-11-12T03:31:19.523Z,8.00
2022-11-12T03:36:41.438Z,8.00
2022-11-12T03:42:04.804Z,8.00
2022-11-12T03:47:26.807Z,8.20
2022-11-12T03:52:49.790Z,8.10
2022-11-12T03:58:13.296Z,8.10
2022-11-12T04:03:35.193Z,8.00
2022-11-12T04:08:56.722Z,7.90
2022-11-12T04:14:19.977Z,8.00
2022-11-12T04:19:59.160Z,7.90
2022-11-12T04:25:38.452Z,7.70
2022-11-12T04:31:01.300Z,7.60
2022-11-12T04:36:22.867Z,7.60
2022-11-12T04:42:02.237Z,8.00
2022-11-12T04:47:25.469Z,8.00
2022-11-12T04:52:47.392Z,8.10
2022-11-12T04:58:09.293Z,8.20
2022-11-12T05:03:32.266Z,8.20
2022-11-12T05:08:54.264Z,8.20
2022-11-12T05:14:15.953Z,8.40
2022-11-12T05:19:39.335Z,8.40
2022-11-12T05:25:00.903Z,8.50
2022-11-12T05:30:22.570Z,8.40
2022-11-12T05:35:45.442Z,8.40
2022-11-12T05:41:10.132Z,8.40
2022-11-12T05:46:32.186Z,8.30
2022-11-12T05:51:55.608Z,8.30
2022-11-12T05:57:17.147Z,8.30
2022-11-12T06:02:39.020Z,8.20
2022-11-12T06:08:02.227Z,8.20
2022-11-12T06:13:25.552Z,8.00
2022-11-12T06:18:47.315Z,7.90
2022-11-12T06:24:11.078Z,8.00
2022-11-12T06:29:32.622Z,8.00
2022-11-12T06:34:54.675Z,7.60
2022-11-12T06:40:17.720Z,7.70
2022-11-12T06:45:39.564Z,7.70
2022-11-12T06:51:09.936Z,7.90
2022-11-12T06:56:33.023Z,7.80
2022-11-12T07:01:54.685Z,7.90
2022-11-12T07:07:16.465Z,7.80
2022-11-12T07:12:47.929Z,7.90
2022-11-12T07:18:13.688Z,8.10
2022-11-12T07:23:36.858Z,8.20
2022-11-12T07:29:00.079Z,8.30
2022-11-12T07:34:21.753Z,8.10
2022-11-12T07:39:43.698Z,7.70
2022-11-12T07:45:07.868Z,7.30
2022-11-12T07:50:29.658Z,7.60
2022-11-12T07:55:55.838Z,7.80
2022-11-12T08:01:25.289Z,8.00
2022-11-12T08:06:47.386Z,8.10
2022-11-12T08:12:09.606Z,8.10
2022-11-12T08:17:32.523Z,8.20
2022-11-12T08:22:54.374Z,8.40
2022-11-12T08:28:16.067Z,8.30
2022-11-12T08:33:39.941Z,8.40
2022-11-12T08:39:09.873Z,8.30
2022-11-12T08:44:31.830Z,8.30
2022-11-12T08:49:54.979Z,8.40
2022-11-12T08:55:19.913Z,8.30
2022-11-12T09:00:46.537Z,8.20
2022-11-12T09:06:10.422Z,8.30
2022-11-12T09:11:32.135Z,8.20
2022-11-12T09:17:02.917Z,8.10
2022-11-12T09:22:26.277Z,8.20
2022-11-12T09:28:04.055Z,8.10
2022-11-12T09:33:27.449Z,8.10
2022-11-12T09:38:50.492Z,8.10
2022-11-12T09:44:14.733Z,8.20
2022-11-12T09:49:42.106Z,8.20
2022-11-12T09:55:14.105Z,8.30
2022-11-12T10:00:36.007Z,8.40
2022-11-12T10:06:01.469Z,8.30
2022-11-12T10:12:16.200Z,8.40
2022-11-12T10:17:44.310Z,8.40
2022-11-12T10:23:16.917Z,8.40
2022-11-12T10:28:46.802Z,8.40
2022-11-12T10:34:17.354Z,8.40
2022-11-12T10:39:48.617Z,8.60
2022-11-12T10:45:21.790Z,8.40
2022-11-12T10:50:44.160Z,8.80
2022-11-12T10:56:21.766Z,8.70
2022-11-12T11:01:46.377Z,8.70
2022-11-12T11:07:17.138Z,8.60
2022-11-12T11:12:38.778Z,8.60
2022-11-12T11:18:02.119Z,8.70
2022-11-12T11:23:28.539Z,8.70
2022-11-12T11:28:59.324Z,8.60
2022-11-12T11:34:34.376Z,8.80
2022-11-12T11:40:06.663Z,8.80
2022-11-12T11:45:35.274Z,8.80
2022-11-12T11:51:07.885Z,8.90
2022-11-12T11:56:35.156Z,8.90
2022-11-12T12:02:21.095Z,9.00
2022-11-12T12:07:50.850Z,9.00
2022-11-12T12:13:20.039Z,9.00
2022-11-12T12:18:51.058Z,9.00
2022-11-12T12:24:19.788Z,9.00
2022-11-12T12:29:47.592Z,9.10
2022-11-12T12:35:17.200Z,9.20
2022-11-12T12:40:47.333Z,9.10
2022-11-12T12:46:13.815Z,9.20
2022-11-12T12:51:36.802Z,9.20
2022-11-12T12:57:06.325Z,9.10
2022-11-12T13:02:28.115Z,9.20
2022-11-12T13:07:52.199Z,9.30
2022-11-12T13:13:32.941Z,9.30
2022-11-12T13:19:00.237Z,9.20
2022-11-12T13:25:00.855Z,9.10
2022-11-12T13:30:55.705Z,9.30
2022-11-12T13:36:28.902Z,9.30
2022-11-12T13:42:16.155Z,9.20
2022-11-12T13:47:45.718Z,9.20
2022-11-12T13:53:10.834Z,9.30
2022-11-12T13:58:34.105Z,9.20
2022-11-12T14:03:55.649Z,9.30
2022-11-12T14:09:29.893Z,9.30
2022-11-12T14:15:12.763Z,9.30
2022-11-12T14:20:43.050Z,9.40
2022-11-12T14:26:06.257Z,9.40
2022-11-12T14:31:27.923Z,9.40
2022-11-12T14:36:50.643Z,9.40
2022-11-12T14:42:16.508Z,9.40
2022-11-12T14:47:38.022Z,9.40
2022-11-12T14:53:04.983Z,9.30
2022-11-12T14:58:28.694Z,9.40
2022-11-12T15:03:50.150Z,9.50
2022-11-12T15:09:12.014Z,9.50
2022-11-12T15:14:35.532Z,9.50
2022-11-12T15:20:02.745Z,9.50
2022-11-12T15:25:26.857Z,9.50
2022-11-12T15:31:03.412Z,9.40
2022-11-12T15:36:25.474Z,9.40
2022-11-12T15:41:47.186Z,9.40
2022-11-12T15:47:17.336Z,9.70
2022-11-12T15:52:38.834Z,9.60
2022-11-12T15:58:00.462Z,9.50
2022-11-12T16:03:23.731Z,9.50
2022-11-12T16:08:45.090Z,9.60
2022-11-12T16:14:11.569Z,9.50
2022-11-12T16:19:34.537Z,9.50
2022-11-12T16:24:56.082Z,9.30
2022-11-12T16:30:19.722Z,9.40
2022-11-12T16:35:43.041Z,9.40
2022-11-12T16:41:04.656Z,9.40
2022-11-12T16:46:31.406Z,9.50
2022-11-12T16:52:02.161Z,9.40
2022-11-12T16:57:23.398Z,9.40
2022-11-12T17:02:50.657Z,9.40
2022-11-12T17:08:15.843Z,9.40
2022-11-12T17:13:39.589Z,9.50
2022-11-12T17:19:02.411Z,9.50
2022-11-12T17:24:28.751Z,9.50
2022-11-12T17:29:50.312Z,9.40
2022-11-12T17:35:12.024Z,9.40
2022-11-12T17:40:34.806Z,9.40
2022-11-12T17:45:57.131Z,9.50
2022-11-12T17:51:20.323Z,9.40
2022-11-12T17:56:49.327Z,9.40
2022-11-12T18:02:12.368Z,9.40
2022-11-12T18:07:34.068Z,9.50
2022-11-12T18:12:57.740Z,9.40
2022-11-12T18:18:19.744Z,9.50
2022-11-12T18:23:43.580Z,9.30
2022-11-12T18:29:07.270Z,9.20
2022-11-12T18:34:28.772Z,9.00
2022-11-12T18:39:50.401Z,9.30
2022-11-12T18:45:13.784Z,9.30
2022-11-12T18:50:35.461Z,9.30
2022-11-12T18:56:00.155Z,9.40
2022-11-12T19:01:25.365Z,9.50
2022-11-12T19:06:46.803Z,9.80
2022-11-12T19:12:10.527Z,9.70
2022-11-12T19:17:33.604Z,9.80
2022-11-12T19:22:55.209Z,9.60
2022-11-12T19:28:16.822Z,9.50
2022-11-12T19:33:40.204Z,9.50
2022-11-12T19:39:02.542Z,9.20
2022-11-12T19:44:24.377Z,9.00
2022-11-12T19:49:47.285Z,9.00
2022-11-12T19:55:09.488Z,9.00
2022-11-12T20:00:31.266Z,9.10
2022-11-12T20:06:06.718Z,9.10
2022-11-12T20:11:28.108Z,9.40
2022-11-12T20:16:51.652Z,9.50
2022-11-12T20:22:14.817Z,9.40
2022-11-12T20:27:36.349Z,9.30
2022-11-12T20:32:57.815Z,9.30
2022-11-12T20:38:20.635Z,9.50
2022-11-12T20:43:42.498Z,9.50
2022-11-12T20:49:06.437Z,9.30
2022-11-12T20:54:29.411Z,9.50
2022-11-12T20:59:51.654Z,9.50
2022-11-12T21:05:13.370Z,9.50
2022-11-12T21:10:36.054Z,9.40
2022-11-12T21:15:57.846Z,9.50
2022-11-12T21:21:21.255Z,9.40
2022-11-12T21:26:44.563Z,9.40
2022-11-12T21:32:06.592Z,9.40
2022-11-12T21:37:28.090Z,9.40
2022-11-12T21:42:51.078Z,9.30
2022-11-12T21:48:12.558Z,9.40
2022-11-12T21:53:34.429Z,9.40
2022-11-12T21:58:59.428Z,9.40
2022-11-12T22:04:21.042Z,9.30
2022-11-12T22:09:42.538Z,9.30
2022-11-12T22:15:06.275Z,9.30
2022-11-12T22:20:27.701Z,9.50
2022-11-12T22:25:50.596Z,9.40
2022-11-12T22:31:15.206Z,9.30
2022-11-12T22:36:36.857Z,9.30
2022-11-12T22:41:58.405Z,9.30
2022-11-12T22:47:21.318Z,9.10
2022-11-12T22:52:47.263Z,9.10
2022-11-12T22:58:11.885Z,9.20
2022-11-12T23:03:35.814Z,9.30
2022-11-12T23:08:59.112Z,9.30
2022-11-12T23:14:20.587Z,9.40
2022-11-12T23:19:43.592Z,9.30
2022-11-12T23:25:05.738Z,9.30
2022-11-12T23:30:27.787Z,9.30
2022-11-12T23:35:50.601Z,9.30
2022-11-12T23:41:13.173Z,9.30
2022-11-12T23:46:34.850Z,9.30
2022-11-12T23:51:57.713Z,9.30
2022-11-12T23:57:19.262Z,9.10
